createdAt,value
2017-08-27T00:00:12.562Z,0
2017-08-27T00:01:13.988Z,0
2017-08-27T00:02:15.419Z,0
2017-08-27T00:03:16.842Z,0
2017-08-27T00:04:18.269Z,0
2017-08-27T00:05:19.683Z,0
2017-08-27T00:06:21.099Z,0
2017-08-27T00:07:22.523Z,0
2017-08-27T00:08:23.944Z,0
2017-08-27T00:09:25.391Z,0
2017-08-27T00:10:26.814Z,0
2017-08-27T00:11:28.236Z,0
2017-08-27T00:12:29.682Z,0
2017-08-27T00:13:31.081Z,0
2017-08-27T00:14:32.494Z,0
2017-08-27T00:15:33.925Z,0
2017-08-27T00:16:35.343Z,0
2017-08-27T00:17:36.767Z,0
2017-08-27T00:18:38.190Z,0
2017-08-27T00:19:39.610Z,0
2017-08-27T00:20:41.032Z,0
2017-08-27T00:21:42.453Z,0
2017-08-27T00:22:43.873Z,0
2017-08-27T00:23:45.297Z,0
2017-08-27T00:24:46.716Z,0
2017-08-27T00:25:48.138Z,0
2017-08-27T00:26:49.559Z,0
2017-08-27T00:27:50.982Z,0
2017-08-27T00:28:52.401Z,0
2017-08-27T00:29:53.822Z,0
2017-08-27T00:30:55.243Z,0
2017-08-27T00:31:56.665Z,0
2017-08-27T00:32:58.087Z,0
2017-08-27T00:33:59.508Z,0
2017-08-27T00:35:00.931Z,0
2017-08-27T00:36:02.352Z,0
2017-08-27T00:37:03.775Z,0
2017-08-27T00:38:05.197Z,0
2017-08-27T00:39:06.618Z,0
2017-08-27T00:40:08.040Z,0
2017-08-27T00:41:09.459Z,0
2017-08-27T00:42:10.882Z,0
2017-08-27T00:43:12.303Z,0
2017-08-27T00:44:13.724Z,0
2017-08-27T00:45:15.158Z,0
2017-08-27T00:46:16.579Z,0
2017-08-27T00:47:18.000Z,0
2017-08-27T00:48:19.422Z,0
2017-08-27T00:49:20.844Z,0
2017-08-27T00:50:22.298Z,0
2017-08-27T00:51:23.717Z,0
2017-08-27T00:52:25.138Z,0
2017-08-27T00:53:26.559Z,0
2017-08-27T00:54:27.979Z,0
2017-08-27T00:55:29.399Z,0
2017-08-27T00:56:30.822Z,0
2017-08-27T00:57:32.244Z,0
2017-08-27T00:58:33.669Z,0
2017-08-27T00:59:35.097Z,0
2017-08-27T01:00:36.517Z,0
2017-08-27T01:01:37.937Z,0
2017-08-27T01:02:39.360Z,0
2017-08-27T01:03:40.779Z,0
2017-08-27T01:04:42.205Z,0
2017-08-27T01:05:43.627Z,0
2017-08-27T01:06:45.046Z,0
2017-08-27T01:07:46.466Z,0
2017-08-27T01:08:47.888Z,0
2017-08-27T01:09:49.309Z,0
2017-08-27T01:10:50.728Z,0
2017-08-27T01:11:52.149Z,0
2017-08-27T01:12:53.569Z,0
2017-08-27T01:13:54.992Z,0
2017-08-27T01:14:56.415Z,0
2017-08-27T01:15:57.846Z,0
2017-08-27T01:16:59.268Z,0
2017-08-27T01:18:00.692Z,0
2017-08-27T01:19:02.112Z,0
2017-08-27T01:20:03.533Z,0
2017-08-27T01:21:04.956Z,0
2017-08-27T01:22:06.375Z,0
2017-08-27T01:23:07.795Z,0
2017-08-27T01:24:09.215Z,0
2017-08-27T01:25:10.637Z,0
2017-08-27T01:26:12.058Z,0
2017-08-27T01:27:13.480Z,0
2017-08-27T01:28:14.903Z,0
2017-08-27T01:29:16.323Z,0
2017-08-27T01:30:17.743Z,0
2017-08-27T01:31:19.162Z,0
2017-08-27T01:32:20.584Z,0
2017-08-27T01:33:22.006Z,0
2017-08-27T01:34:23.430Z,0
2017-08-27T01:35:24.847Z,0
2017-08-27T01:36:26.273Z,0
2017-08-27T01:37:27.691Z,0
2017-08-27T01:38:29.114Z,0
2017-08-27T01:39:30.533Z,0
2017-08-27T01:40:31.957Z,0
2017-08-27T01:41:33.381Z,0
2017-08-27T01:42:34.804Z,0
2017-08-27T01:43:36.224Z,0
2017-08-27T01:44:37.644Z,0
2017-08-27T01:45:39.088Z,0
2017-08-27T01:46:40.498Z,0
2017-08-27T01:47:41.920Z,0
2017-08-27T01:48:43.380Z,0
2017-08-27T01:49:44.804Z,0
2017-08-27T01:50:46.225Z,0
2017-08-27T01:51:47.656Z,0
2017-08-27T01:52:49.079Z,0
2017-08-27T01:53:50.504Z,0
2017-08-27T01:54:51.923Z,0
2017-08-27T01:55:53.344Z,0
2017-08-27T01:56:54.766Z,0
2017-08-27T01:57:56.189Z,0
2017-08-27T01:58:57.610Z,0
2017-08-27T01:59:59.035Z,0
2017-08-27T02:01:00.457Z,0
2017-08-27T02:02:01.879Z,0
2017-08-27T02:03:03.300Z,0
2017-08-27T02:04:04.723Z,0
2017-08-27T02:05:06.159Z,0
2017-08-27T02:06:07.581Z,0
2017-08-27T02:07:09.004Z,0
2017-08-27T02:08:10.424Z,0
2017-08-27T02:09:11.860Z,0
2017-08-27T02:10:13.273Z,0
2017-08-27T02:11:14.695Z,0
2017-08-27T02:12:16.114Z,0
2017-08-27T02:13:17.536Z,0
2017-08-27T02:14:18.956Z,0
2017-08-27T02:15:20.386Z,0
2017-08-27T02:16:21.812Z,0
2017-08-27T02:17:23.234Z,0
2017-08-27T02:18:24.664Z,0
2017-08-27T02:19:26.085Z,0
2017-08-27T02:20:27.506Z,0
2017-08-27T02:21:28.926Z,0
2017-08-27T02:22:30.348Z,0
2017-08-27T02:23:31.763Z,0
2017-08-27T02:24:33.197Z,0
2017-08-27T02:25:34.619Z,0
2017-08-27T02:26:36.041Z,0
2017-08-27T02:27:37.469Z,0
2017-08-27T02:28:38.890Z,0
2017-08-27T02:29:40.310Z,0
2017-08-27T02:30:41.734Z,0
2017-08-27T02:31:43.153Z,0
2017-08-27T02:32:44.574Z,0
2017-08-27T02:33:45.996Z,0
2017-08-27T02:34:47.418Z,0
2017-08-27T02:35:48.841Z,0
2017-08-27T02:36:50.306Z,0
2017-08-27T02:37:51.721Z,0
2017-08-27T02:38:53.143Z,0
2017-08-27T02:39:54.564Z,0
2017-08-27T02:40:55.983Z,0
2017-08-27T02:41:57.407Z,0
2017-08-27T02:42:58.826Z,0
2017-08-27T02:44:00.245Z,0
2017-08-27T02:45:01.668Z,0
2017-08-27T02:46:03.088Z,0
2017-08-27T02:47:04.512Z,0
2017-08-27T02:48:05.933Z,0
2017-08-27T02:49:07.354Z,0
2017-08-27T02:50:08.778Z,0
2017-08-27T02:51:10.200Z,0
2017-08-27T02:52:11.631Z,0
2017-08-27T02:53:13.050Z,0
2017-08-27T02:54:14.472Z,0
2017-08-27T02:55:15.890Z,0
2017-08-27T02:56:17.320Z,0
2017-08-27T02:57:18.735Z,0
2017-08-27T02:58:20.158Z,0
2017-08-27T02:59:21.581Z,0
2017-08-27T03:00:23.019Z,0
2017-08-27T03:01:24.437Z,0
2017-08-27T03:02:25.859Z,0
2017-08-27T03:03:27.280Z,0
2017-08-27T03:04:28.700Z,0
2017-08-27T03:05:30.121Z,0
2017-08-27T03:06:31.542Z,0
2017-08-27T03:07:32.966Z,0
2017-08-27T03:08:34.385Z,0
2017-08-27T03:09:35.806Z,0
2017-08-27T03:10:37.242Z,0
2017-08-27T03:11:38.664Z,0
2017-08-27T03:12:40.086Z,0
2017-08-27T03:13:41.510Z,0
2017-08-27T03:14:42.925Z,0
2017-08-27T03:15:44.386Z,0
2017-08-27T03:16:45.801Z,0
2017-08-27T03:17:47.226Z,0
2017-08-27T03:18:48.649Z,0
2017-08-27T03:19:50.069Z,0
2017-08-27T03:20:51.490Z,0
2017-08-27T03:21:52.911Z,0
2017-08-27T03:22:54.330Z,0
2017-08-27T03:23:55.752Z,0
2017-08-27T03:24:57.174Z,0
2017-08-27T03:25:58.596Z,0
2017-08-27T03:27:00.019Z,0
2017-08-27T03:28:01.439Z,0
2017-08-27T03:29:02.870Z,0
2017-08-27T03:30:04.312Z,0
2017-08-27T03:31:05.743Z,0
2017-08-27T03:32:07.153Z,0
2017-08-27T03:33:08.576Z,0
2017-08-27T03:34:10.000Z,0
2017-08-27T03:35:11.422Z,0
2017-08-27T03:36:12.858Z,0
2017-08-27T03:37:14.262Z,0
2017-08-27T03:38:15.685Z,0
2017-08-27T03:39:17.107Z,0
2017-08-27T03:40:18.529Z,0
2017-08-27T03:41:19.952Z,0
2017-08-27T03:42:21.373Z,0
2017-08-27T03:43:22.797Z,0
2017-08-27T03:44:24.221Z,0
2017-08-27T03:45:25.641Z,0
2017-08-27T03:46:27.064Z,0
2017-08-27T03:47:28.482Z,0
2017-08-27T03:48:29.921Z,0
2017-08-27T03:49:31.344Z,0
2017-08-27T03:50:32.769Z,0
2017-08-27T03:51:34.188Z,0
2017-08-27T03:52:35.614Z,0
2017-08-27T03:53:37.033Z,0
2017-08-27T03:54:38.453Z,0
2017-08-27T03:55:39.874Z,0
2017-08-27T03:56:41.295Z,0
2017-08-27T03:57:42.718Z,0
2017-08-27T03:58:44.153Z,0
2017-08-27T03:59:45.573Z,0
2017-08-27T04:00:46.997Z,0
2017-08-27T04:01:48.416Z,0
2017-08-27T04:02:49.842Z,0
2017-08-27T04:03:51.262Z,0
2017-08-27T04:04:52.683Z,0
2017-08-27T04:05:54.104Z,0
2017-08-27T04:06:55.524Z,0
2017-08-27T04:07:56.950Z,0
2017-08-27T04:08:58.375Z,0
2017-08-27T04:09:59.792Z,0
2017-08-27T04:11:01.231Z,0
2017-08-27T04:12:02.667Z,0
2017-08-27T04:13:04.079Z,0
2017-08-27T04:14:05.501Z,0
2017-08-27T04:15:06.923Z,0
2017-08-27T04:16:08.347Z,0
2017-08-27T04:17:09.768Z,0
2017-08-27T04:18:11.187Z,0
2017-08-27T04:19:12.607Z,0
2017-08-27T04:20:14.027Z,0
2017-08-27T04:21:15.446Z,0
2017-08-27T04:22:16.866Z,0
2017-08-27T04:23:18.285Z,0
2017-08-27T04:24:19.707Z,0
2017-08-27T04:25:21.127Z,0
2017-08-27T04:26:22.546Z,0
2017-08-27T04:27:23.965Z,0
2017-08-27T04:28:25.385Z,0
2017-08-27T04:29:26.811Z,0
2017-08-27T04:30:28.230Z,0
2017-08-27T04:31:29.657Z,0
2017-08-27T04:32:31.080Z,0
2017-08-27T04:33:32.498Z,0
2017-08-27T04:34:33.918Z,0
2017-08-27T04:35:35.340Z,0
2017-08-27T04:36:36.760Z,0
2017-08-27T04:37:38.181Z,0
2017-08-27T04:38:39.600Z,0
2017-08-27T04:39:41.032Z,0
2017-08-27T04:40:42.450Z,0
2017-08-27T04:41:43.871Z,0
2017-08-27T04:42:45.294Z,0
2017-08-27T04:43:46.716Z,0
2017-08-27T04:44:48.139Z,0
2017-08-27T04:45:49.560Z,4
2017-08-27T04:46:50.981Z,4
2017-08-27T04:47:52.405Z,4
2017-08-27T04:48:53.826Z,4
2017-08-27T04:49:55.249Z,4
2017-08-27T04:50:56.666Z,4
2017-08-27T04:51:58.089Z,4
2017-08-27T04:52:59.508Z,4
2017-08-27T04:54:00.948Z,4
2017-08-27T04:55:02.372Z,4
2017-08-27T04:56:03.796Z,4
2017-08-27T04:57:05.217Z,4
2017-08-27T04:58:06.659Z,4
2017-08-27T04:59:08.064Z,4
2017-08-27T05:00:09.485Z,4
2017-08-27T05:01:10.906Z,4
2017-08-27T05:02:12.324Z,0
2017-08-27T05:03:13.745Z,4
2017-08-27T05:04:15.166Z,4
2017-08-27T05:05:16.587Z,4
2017-08-27T05:06:18.010Z,4
2017-08-27T05:07:19.430Z,4
2017-08-27T05:08:20.853Z,8
2017-08-27T05:09:22.279Z,8
2017-08-27T05:10:23.711Z,8
2017-08-27T05:11:25.126Z,8
2017-08-27T05:12:26.546Z,8
2017-08-27T05:13:27.969Z,8
2017-08-27T05:14:29.388Z,4
2017-08-27T05:15:30.810Z,4
2017-08-27T05:16:32.233Z,8
2017-08-27T05:17:33.667Z,8
2017-08-27T05:18:35.087Z,8
2017-08-27T05:19:36.507Z,8
2017-08-27T05:20:37.926Z,8
2017-08-27T05:21:39.350Z,12
2017-08-27T05:22:40.771Z,8
2017-08-27T05:23:42.195Z,8
2017-08-27T05:24:43.614Z,8
2017-08-27T05:25:45.033Z,8
2017-08-27T05:26:46.447Z,8
2017-08-27T05:27:47.878Z,8
2017-08-27T05:28:49.299Z,12
2017-08-27T05:29:50.720Z,8
2017-08-27T05:30:52.142Z,12
2017-08-27T05:31:53.557Z,16
2017-08-27T05:32:54.987Z,12
2017-08-27T05:33:56.409Z,16
2017-08-27T05:34:57.830Z,16
2017-08-27T05:35:59.255Z,16
2017-08-27T05:37:00.674Z,16
2017-08-27T05:38:02.096Z,20
2017-08-27T05:39:03.516Z,16
2017-08-27T05:40:04.949Z,16
2017-08-27T05:41:06.373Z,16
2017-08-27T05:42:07.795Z,20
2017-08-27T05:43:09.217Z,20
2017-08-27T05:44:10.640Z,20
2017-08-27T05:45:12.078Z,16
2017-08-27T05:46:13.497Z,20
2017-08-27T05:47:14.917Z,20
2017-08-27T05:48:16.340Z,20
2017-08-27T05:49:17.762Z,24
2017-08-27T05:50:19.187Z,24
2017-08-27T05:51:20.618Z,20
2017-08-27T05:52:22.034Z,20
2017-08-27T05:53:23.451Z,24
2017-08-27T05:54:24.881Z,24
2017-08-27T05:55:26.305Z,24
2017-08-27T05:56:27.723Z,24
2017-08-27T05:57:29.146Z,24
2017-08-27T05:58:30.567Z,24
2017-08-27T05:59:31.996Z,24
2017-08-27T06:00:33.429Z,24
2017-08-27T06:01:34.854Z,24
2017-08-27T06:02:36.271Z,24
2017-08-27T06:03:37.692Z,24
2017-08-27T06:04:39.113Z,28
2017-08-27T06:05:40.541Z,28
2017-08-27T06:06:41.956Z,28
2017-08-27T06:07:43.378Z,28
2017-08-27T06:08:44.802Z,24
2017-08-27T06:09:46.225Z,28
2017-08-27T06:10:47.650Z,32
2017-08-27T06:11:49.072Z,32
2017-08-27T06:12:50.493Z,32
2017-08-27T06:13:51.915Z,32
2017-08-27T06:14:53.337Z,32
2017-08-27T06:15:54.758Z,32
2017-08-27T06:16:56.179Z,32
2017-08-27T06:17:57.601Z,36
2017-08-27T06:18:59.038Z,36
2017-08-27T06:20:00.459Z,36
2017-08-27T06:21:01.880Z,36
2017-08-27T06:22:03.303Z,36
2017-08-27T06:23:04.735Z,36
2017-08-27T06:24:06.155Z,36
2017-08-27T06:25:07.578Z,40
2017-08-27T06:26:09.000Z,40
2017-08-27T06:27:10.421Z,44
2017-08-27T06:28:11.843Z,44
2017-08-27T06:29:13.268Z,44
2017-08-27T06:30:14.691Z,48
2017-08-27T06:31:16.109Z,52
2017-08-27T06:32:17.533Z,48
2017-08-27T06:33:18.956Z,44
2017-08-27T06:34:20.383Z,40
2017-08-27T06:35:21.804Z,36
2017-08-27T06:36:23.227Z,36
2017-08-27T06:37:24.648Z,36
2017-08-27T06:38:26.072Z,36
2017-08-27T06:39:27.507Z,40
2017-08-27T06:40:28.932Z,40
2017-08-27T06:41:30.350Z,40
2017-08-27T06:42:31.773Z,40
2017-08-27T06:43:33.195Z,40
2017-08-27T06:44:34.626Z,36
2017-08-27T06:45:36.052Z,40
2017-08-27T06:46:37.472Z,40
2017-08-27T06:47:38.896Z,40
2017-08-27T06:48:40.318Z,40
2017-08-27T06:49:41.738Z,44
2017-08-27T06:50:43.160Z,44
2017-08-27T06:51:44.581Z,48
2017-08-27T06:52:46.005Z,52
2017-08-27T06:53:47.427Z,52
2017-08-27T06:54:48.848Z,52
2017-08-27T06:55:50.269Z,52
2017-08-27T06:56:51.690Z,52
2017-08-27T06:57:53.113Z,52
2017-08-27T06:58:54.532Z,56
2017-08-27T06:59:55.956Z,52
2017-08-27T07:00:57.377Z,56
2017-08-27T07:01:58.802Z,60
2017-08-27T07:03:00.225Z,60
2017-08-27T07:04:01.646Z,64
2017-08-27T07:05:03.069Z,68
2017-08-27T07:06:04.498Z,64
2017-08-27T07:07:05.916Z,68
2017-08-27T07:08:07.340Z,68
2017-08-27T07:09:08.762Z,64
2017-08-27T07:10:10.184Z,60
2017-08-27T07:11:11.617Z,56
2017-08-27T07:12:13.041Z,56
2017-08-27T07:13:14.472Z,60
2017-08-27T07:14:15.889Z,60
2017-08-27T07:15:17.311Z,60
2017-08-27T07:16:18.734Z,60
2017-08-27T07:17:20.157Z,56
2017-08-27T07:18:21.578Z,56
2017-08-27T07:19:23.000Z,56
2017-08-27T07:20:24.425Z,60
2017-08-27T07:21:25.854Z,60
2017-08-27T07:22:27.277Z,68
2017-08-27T07:23:28.701Z,72
2017-08-27T07:24:30.125Z,80
2017-08-27T07:25:31.545Z,88
2017-08-27T07:26:32.972Z,84
2017-08-27T07:27:34.391Z,84
2017-08-27T07:28:35.815Z,80
2017-08-27T07:29:37.239Z,72
2017-08-27T07:30:38.666Z,76
2017-08-27T07:31:40.089Z,72
2017-08-27T07:32:41.513Z,72
2017-08-27T07:33:42.939Z,72
2017-08-27T07:34:44.361Z,72
2017-08-27T07:35:45.784Z,72
2017-08-27T07:36:47.207Z,76
2017-08-27T07:37:48.632Z,72
2017-08-27T07:38:50.051Z,76
2017-08-27T07:39:51.475Z,76
2017-08-27T07:40:52.897Z,80
2017-08-27T07:41:54.322Z,72
2017-08-27T07:42:55.743Z,72
2017-08-27T07:43:57.166Z,68
2017-08-27T07:44:58.591Z,72
2017-08-27T07:46:00.013Z,80
2017-08-27T07:47:01.436Z,84
2017-08-27T07:48:02.861Z,84
2017-08-27T07:49:04.284Z,80
2017-08-27T07:50:05.706Z,84
2017-08-27T07:51:07.129Z,80
2017-08-27T07:52:08.553Z,80
2017-08-27T07:53:09.975Z,80
2017-08-27T07:54:11.396Z,84
2017-08-27T07:55:12.820Z,88
2017-08-27T07:56:14.244Z,88
2017-08-27T07:57:15.667Z,84
2017-08-27T07:58:17.090Z,84
2017-08-27T07:59:18.512Z,80
2017-08-27T08:00:19.934Z,80
2017-08-27T08:01:21.364Z,80
2017-08-27T08:02:22.786Z,72
2017-08-27T08:03:24.210Z,68
2017-08-27T08:04:25.633Z,60
2017-08-27T08:05:27.064Z,60
2017-08-27T08:06:28.485Z,64
2017-08-27T08:07:29.907Z,68
2017-08-27T08:08:31.330Z,64
2017-08-27T08:09:32.751Z,64
2017-08-27T08:10:34.178Z,68
2017-08-27T08:11:35.606Z,72
2017-08-27T08:12:37.030Z,80
2017-08-27T08:13:38.454Z,92
2017-08-27T08:14:39.875Z,100
2017-08-27T08:15:41.299Z,96
2017-08-27T08:16:42.723Z,88
2017-08-27T08:17:44.146Z,84
2017-08-27T08:18:45.568Z,84
2017-08-27T08:19:46.989Z,76
2017-08-27T08:20:48.418Z,76
2017-08-27T08:21:49.836Z,76
2017-08-27T08:22:51.257Z,76
2017-08-27T08:23:52.683Z,72
2017-08-27T08:24:54.106Z,72
2017-08-27T08:25:55.528Z,76
2017-08-27T08:26:56.952Z,76
2017-08-27T08:27:58.378Z,76
2017-08-27T08:28:59.798Z,80
2017-08-27T08:30:01.224Z,88
2017-08-27T08:31:02.650Z,84
2017-08-27T08:32:04.070Z,84
2017-08-27T08:33:05.496Z,84
2017-08-27T08:34:06.918Z,80
2017-08-27T08:35:08.340Z,80
2017-08-27T08:36:09.764Z,84
2017-08-27T08:37:11.188Z,80
2017-08-27T08:38:12.614Z,88
2017-08-27T08:39:14.039Z,92
2017-08-27T08:40:15.463Z,92
2017-08-27T08:41:16.886Z,92
2017-08-27T08:42:18.308Z,92
2017-08-27T08:43:19.730Z,92
2017-08-27T08:44:21.156Z,92
2017-08-27T08:45:22.578Z,88
2017-08-27T08:46:24.003Z,96
2017-08-27T08:47:25.425Z,104
2017-08-27T08:48:26.848Z,104
2017-08-27T08:49:28.275Z,108
2017-08-27T08:50:29.697Z,104
2017-08-27T08:51:31.121Z,92
2017-08-27T08:52:32.544Z,84
2017-08-27T08:53:33.975Z,84
2017-08-27T08:54:35.401Z,84
2017-08-27T08:55:36.822Z,88
2017-08-27T08:56:38.246Z,92
2017-08-27T08:57:39.669Z,92
2017-08-27T08:58:41.092Z,88
2017-08-27T08:59:42.539Z,88
2017-08-27T09:00:43.942Z,84
2017-08-27T09:01:45.363Z,84
2017-08-27T09:02:46.788Z,92
2017-08-27T09:03:48.214Z,96
2017-08-27T09:04:49.640Z,100
2017-08-27T09:05:51.063Z,96
2017-08-27T09:06:52.487Z,96
2017-08-27T09:07:53.909Z,96
2017-08-27T09:08:55.332Z,92
2017-08-27T09:09:56.764Z,96
2017-08-27T09:10:58.179Z,92
2017-08-27T09:11:59.604Z,92
2017-08-27T09:13:01.030Z,92
2017-08-27T09:14:02.453Z,96
2017-08-27T09:15:03.880Z,104
2017-08-27T09:16:05.309Z,108
2017-08-27T09:17:06.733Z,116
2017-08-27T09:18:08.160Z,124
2017-08-27T09:19:09.585Z,136
2017-08-27T09:20:11.013Z,144
2017-08-27T09:21:12.473Z,136
2017-08-27T09:22:13.868Z,124
2017-08-27T09:23:15.296Z,116
2017-08-27T09:24:16.728Z,116
2017-08-27T09:25:18.175Z,120
2017-08-27T09:26:19.602Z,128
2017-08-27T09:27:21.026Z,136
2017-08-27T09:28:22.454Z,136
2017-08-27T09:29:23.876Z,136
2017-08-27T09:30:25.303Z,128
2017-08-27T09:31:26.728Z,124
2017-08-27T09:32:28.155Z,132
2017-08-27T09:33:29.578Z,136
2017-08-27T09:34:31.012Z,132
2017-08-27T09:35:32.438Z,128
2017-08-27T09:36:33.866Z,116
2017-08-27T09:37:35.297Z,100
2017-08-27T09:38:36.741Z,100
2017-08-27T09:39:38.170Z,96
2017-08-27T09:40:39.592Z,104
2017-08-27T09:41:41.019Z,112
2017-08-27T09:42:42.447Z,112
2017-08-27T09:43:43.876Z,108
2017-08-27T09:44:45.300Z,108
2017-08-27T09:45:46.725Z,108
2017-08-27T09:46:48.151Z,104
2017-08-27T09:47:49.576Z,96
2017-08-27T09:48:51.000Z,92
2017-08-27T09:49:52.446Z,92
2017-08-27T09:50:53.851Z,92
2017-08-27T09:51:55.272Z,96
2017-08-27T09:52:56.696Z,92
2017-08-27T09:53:58.124Z,100
2017-08-27T09:54:59.547Z,100
2017-08-27T09:56:00.986Z,100
2017-08-27T09:57:02.413Z,100
2017-08-27T09:58:03.839Z,100
2017-08-27T09:59:05.264Z,108
2017-08-27T10:00:06.689Z,108
2017-08-27T10:01:08.113Z,108
2017-08-27T10:02:09.538Z,104
2017-08-27T10:03:10.963Z,104
2017-08-27T10:04:12.387Z,104
2017-08-27T10:05:13.813Z,104
2017-08-27T10:06:15.237Z,104
2017-08-27T10:07:16.667Z,108
2017-08-27T10:08:18.090Z,92
2017-08-27T10:09:19.515Z,96
2017-08-27T10:10:20.938Z,96
2017-08-27T10:11:22.366Z,104
2017-08-27T10:12:23.788Z,104
2017-08-27T10:13:25.213Z,108
2017-08-27T10:14:26.636Z,112
2017-08-27T10:15:28.063Z,112
2017-08-27T10:16:29.490Z,112
2017-08-27T10:17:30.913Z,112
2017-08-27T10:18:32.341Z,112
2017-08-27T10:19:33.767Z,112
2017-08-27T10:20:35.192Z,112
2017-08-27T10:21:36.617Z,112
2017-08-27T10:22:38.042Z,116
2017-08-27T10:23:39.468Z,112
2017-08-27T10:24:40.897Z,116
2017-08-27T10:25:42.328Z,116
2017-08-27T10:26:43.751Z,116
2017-08-27T10:27:45.180Z,116
2017-08-27T10:28:46.605Z,116
2017-08-27T10:29:48.033Z,120
2017-08-27T10:30:49.457Z,120
2017-08-27T10:31:50.879Z,120
2017-08-27T10:32:52.307Z,120
2017-08-27T10:33:53.762Z,124
2017-08-27T10:34:55.156Z,136
2017-08-27T10:35:56.581Z,144
2017-08-27T10:36:58.005Z,144
2017-08-27T10:37:59.434Z,132
2017-08-27T10:39:00.861Z,128
2017-08-27T10:40:02.288Z,124
2017-08-27T10:41:03.713Z,124
2017-08-27T10:42:05.140Z,124
2017-08-27T10:43:06.577Z,128
2017-08-27T10:44:08.006Z,132
2017-08-27T10:45:09.433Z,132
2017-08-27T10:46:10.857Z,136
2017-08-27T10:47:12.282Z,136
2017-08-27T10:48:13.709Z,136
2017-08-27T10:49:15.136Z,144
2017-08-27T10:50:16.561Z,140
2017-08-27T10:51:17.985Z,140
2017-08-27T10:52:19.413Z,140
2017-08-27T10:53:20.840Z,140
2017-08-27T10:54:22.268Z,148
2017-08-27T10:55:23.692Z,156
2017-08-27T10:56:25.116Z,168
2017-08-27T10:57:26.545Z,172
2017-08-27T10:58:27.965Z,176
2017-08-27T10:59:29.388Z,164
2017-08-27T11:00:30.815Z,160
2017-08-27T11:01:32.240Z,160
2017-08-27T11:02:33.665Z,160
2017-08-27T11:03:35.091Z,164
2017-08-27T11:04:36.531Z,156
2017-08-27T11:05:37.959Z,156
2017-08-27T11:06:39.385Z,152
2017-08-27T11:07:40.808Z,156
2017-08-27T11:08:42.233Z,168
2017-08-27T11:09:43.658Z,176
2017-08-27T11:10:45.084Z,180
2017-08-27T11:11:46.511Z,172
2017-08-27T11:12:47.938Z,164
2017-08-27T11:13:49.362Z,168
2017-08-27T11:14:50.787Z,184
2017-08-27T11:15:52.213Z,180
2017-08-27T11:16:53.643Z,172
2017-08-27T11:17:55.080Z,172
2017-08-27T11:18:56.509Z,176
2017-08-27T11:19:57.933Z,172
2017-08-27T11:20:59.358Z,180
2017-08-27T11:22:00.782Z,180
2017-08-27T11:23:02.230Z,180
2017-08-27T11:24:03.654Z,172
2017-08-27T11:25:05.082Z,168
2017-08-27T11:26:06.507Z,180
2017-08-27T11:27:07.948Z,180
2017-08-27T11:28:09.372Z,180
2017-08-27T11:29:10.798Z,200
2017-08-27T11:30:12.222Z,188
2017-08-27T11:31:13.653Z,184
2017-08-27T11:32:15.074Z,192
2017-08-27T11:33:16.500Z,220
2017-08-27T11:34:17.923Z,200
2017-08-27T11:35:19.348Z,220
2017-08-27T11:36:20.776Z,216
2017-08-27T11:37:22.202Z,204
2017-08-27T11:38:23.625Z,192
2017-08-27T11:39:25.053Z,180
2017-08-27T11:40:26.479Z,188
2017-08-27T11:41:27.903Z,192
2017-08-27T11:42:29.334Z,172
2017-08-27T11:43:30.758Z,192
2017-08-27T11:44:32.186Z,192
2017-08-27T11:45:33.612Z,188
2017-08-27T11:46:35.038Z,188
2017-08-27T11:47:36.462Z,188
2017-08-27T11:48:37.889Z,188
2017-08-27T11:49:39.312Z,192
2017-08-27T11:50:40.735Z,188
2017-08-27T11:51:42.168Z,192
2017-08-27T11:52:43.603Z,196
2017-08-27T11:53:45.032Z,196
2017-08-27T11:54:46.460Z,200
2017-08-27T11:55:47.879Z,196
2017-08-27T11:56:49.329Z,200
2017-08-27T11:57:50.758Z,204
2017-08-27T11:58:52.185Z,204
2017-08-27T11:59:53.605Z,204
2017-08-27T12:00:55.032Z,204
2017-08-27T12:01:56.470Z,204
2017-08-27T12:02:57.896Z,204
2017-08-27T12:03:59.324Z,208
2017-08-27T12:05:00.747Z,212
2017-08-27T12:06:02.183Z,212
2017-08-27T12:07:03.619Z,212
2017-08-27T12:08:05.027Z,216
2017-08-27T12:09:06.453Z,212
2017-08-27T12:10:07.877Z,216
2017-08-27T12:11:09.305Z,220
2017-08-27T12:12:10.732Z,220
2017-08-27T12:13:12.165Z,224
2017-08-27T12:14:13.587Z,224
2017-08-27T12:15:15.013Z,220
2017-08-27T12:16:16.443Z,224
2017-08-27T12:17:17.872Z,224
2017-08-27T12:18:19.305Z,224
2017-08-27T12:19:20.730Z,228
2017-08-27T12:20:22.179Z,228
2017-08-27T12:21:23.601Z,224
2017-08-27T12:22:25.024Z,228
2017-08-27T12:23:26.451Z,228
2017-08-27T12:24:27.879Z,228
2017-08-27T12:25:29.308Z,228
2017-08-27T12:26:30.733Z,228
2017-08-27T12:27:32.160Z,228
2017-08-27T12:28:33.585Z,228
2017-08-27T12:29:35.010Z,228
2017-08-27T12:30:36.436Z,232
2017-08-27T12:31:37.862Z,232
2017-08-27T12:32:39.287Z,232
2017-08-27T12:33:40.715Z,232
2017-08-27T12:34:42.141Z,232
2017-08-27T12:35:43.567Z,236
2017-08-27T12:36:44.995Z,240
2017-08-27T12:37:46.421Z,240
2017-08-27T12:38:47.843Z,244
2017-08-27T12:39:49.269Z,240
2017-08-27T12:40:50.696Z,248
2017-08-27T12:41:52.121Z,248
2017-08-27T12:42:53.546Z,248
2017-08-27T12:43:54.970Z,252
2017-08-27T12:44:56.399Z,256
2017-08-27T12:45:57.825Z,256
2017-08-27T12:46:59.253Z,260
2017-08-27T12:48:00.680Z,260
2017-08-27T12:49:02.105Z,264
2017-08-27T12:50:03.530Z,264
2017-08-27T12:51:04.958Z,268
2017-08-27T12:52:06.384Z,268
2017-08-27T12:53:07.817Z,268
2017-08-27T12:54:09.242Z,272
2017-08-27T12:55:10.689Z,272
2017-08-27T12:56:12.130Z,272
2017-08-27T12:57:13.564Z,280
2017-08-27T12:58:14.990Z,280
2017-08-27T12:59:16.504Z,284
2017-08-27T13:00:17.931Z,288
2017-08-27T13:01:19.360Z,292
2017-08-27T13:02:20.783Z,296
2017-08-27T13:03:22.212Z,300
2017-08-27T13:04:23.637Z,304
2017-08-27T13:05:25.063Z,312
2017-08-27T13:06:26.492Z,312
2017-08-27T13:07:27.919Z,316
2017-08-27T13:08:29.347Z,304
2017-08-27T13:09:30.791Z,328
2017-08-27T13:10:32.217Z,336
2017-08-27T13:11:33.648Z,324
2017-08-27T13:12:35.077Z,300
2017-08-27T13:13:36.504Z,288
2017-08-27T13:14:37.930Z,328
2017-08-27T13:15:39.357Z,328
2017-08-27T13:16:40.786Z,332
2017-08-27T13:17:42.208Z,252
2017-08-27T13:18:43.643Z,244
2017-08-27T13:19:45.071Z,248
2017-08-27T13:20:46.501Z,296
2017-08-27T13:21:47.927Z,240
2017-08-27T13:22:49.355Z,232
2017-08-27T13:23:50.778Z,224
2017-08-27T13:24:52.202Z,224
2017-08-27T13:25:53.632Z,220
2017-08-27T13:28:27.085Z,240
2017-08-27T13:29:28.513Z,240
2017-08-27T13:30:29.963Z,248
2017-08-27T13:31:31.392Z,268
2017-08-27T13:32:32.821Z,344
2017-08-27T13:33:34.248Z,368
2017-08-27T13:34:35.674Z,332
2017-08-27T13:35:37.099Z,288
2017-08-27T13:36:38.524Z,356
2017-08-27T13:37:39.952Z,280
2017-08-27T13:38:41.378Z,616
2017-08-27T13:39:42.802Z,700
2017-08-27T13:40:44.227Z,760
2017-08-27T13:41:45.655Z,708
2017-08-27T13:42:47.081Z,860
2017-08-27T13:43:48.509Z,900
2017-08-27T13:44:49.938Z,936
2017-08-27T13:45:51.364Z,988
2017-08-27T13:46:52.793Z,884
2017-08-27T13:47:54.222Z,944
2017-08-27T13:48:55.650Z,992
2017-08-27T13:49:57.077Z,1104
2017-08-27T13:50:58.505Z,1000
2017-08-27T13:51:59.937Z,1012
2017-08-27T13:53:01.366Z,944
2017-08-27T13:54:02.795Z,864
2017-08-27T13:55:04.222Z,864
2017-08-27T13:56:05.653Z,860
2017-08-27T13:57:07.079Z,852
2017-08-27T13:58:08.505Z,852
2017-08-27T13:59:09.936Z,816
2017-08-27T14:00:11.382Z,808
2017-08-27T14:01:12.817Z,788
2017-08-27T14:02:14.244Z,784
2017-08-27T14:03:15.673Z,776
2017-08-27T14:04:17.102Z,760
2017-08-27T14:05:18.531Z,784
2017-08-27T14:06:19.960Z,784
2017-08-27T14:07:21.388Z,780
2017-08-27T14:08:22.816Z,816
2017-08-27T14:09:24.232Z,820
2017-08-27T14:10:25.676Z,840
2017-08-27T14:11:27.103Z,836
2017-08-27T14:12:28.540Z,840
2017-08-27T14:13:29.966Z,844
2017-08-27T14:14:31.395Z,876
2017-08-27T14:15:32.825Z,892
2017-08-27T14:16:34.250Z,864
2017-08-27T14:17:35.681Z,856
2017-08-27T14:18:37.109Z,872
2017-08-27T14:19:38.537Z,884
2017-08-27T14:20:39.966Z,896
2017-08-27T14:21:41.397Z,896
2017-08-27T14:22:42.827Z,920
2017-08-27T14:23:44.254Z,940
2017-08-27T14:24:45.685Z,924
2017-08-27T14:25:47.110Z,912
2017-08-27T14:26:48.543Z,936
2017-08-27T14:27:49.972Z,900
2017-08-27T14:28:51.401Z,900
2017-08-27T14:29:52.830Z,916
2017-08-27T14:30:54.260Z,904
2017-08-27T14:31:55.690Z,876
2017-08-27T14:32:57.120Z,852
2017-08-27T14:33:58.548Z,828
2017-08-27T14:34:59.973Z,796
2017-08-27T14:36:01.404Z,800
2017-08-27T14:37:02.833Z,804